Time,TemperatureF,DewpointF,PressureIn,WindDirection,WindDirectionDegrees,WindSpeedMPH,WindSpeedGustMPH,Humidity,HourlyPrecipIn,Conditions,Clouds,dailyrainin,SoftwareType,DateUTC
2013-05-12 00:01:00,57.0,53.5,29.98,North,0,0.7,2.2,88,0.00,,,0.00,pywws,2013-05-12 04:01:00,
2013-05-12 00:04:00,57.0,53.5,29.98,North,0,0.7,2.2,88,0.00,,,0.00,pywws,2013-05-12 04:04:00,
2013-05-12 00:05:00,57.0,53.5,29.98,North,0,0.7,2.2,88,0.00,,,0.00,pywws,2013-05-12 04:05:00,
2013-05-12 00:09:00,56.7,52.8,29.98,North,0,0.0,0.7,87,0.00,,,0.00,pywws,2013-05-12 04:09:00,
2013-05-12 00:12:00,56.5,52.7,29.98,North,0,0.0,0.7,87,0.00,,,0.00,pywws,2013-05-12 04:12:00,
2013-05-12 00:17:00,55.9,52.1,29.98,North,0,0.0,0.7,87,0.00,,,0.00,pywws,2013-05-12 04:17:00,
2013-05-12 00:23:00,55.6,51.8,29.98,West,270,0.7,1.6,87,0.00,,,0.00,pywws,2013-05-12 04:23:00,
2013-05-12 00:29:00,55.2,51.7,29.98,ENE,68,1.6,2.2,88,0.00,,,0.00,pywws,2013-05-12 04:29:00,
2013-05-12 00:34:00,55.0,51.5,29.98,NE,45,0.0,1.6,88,0.00,,,0.00,pywws,2013-05-12 04:34:00,
2013-05-12 00:40:00,54.9,51.4,29.98,NW,315,0.0,0.7,88,0.00,,,0.00,pywws,2013-05-12 04:40:00,
2013-05-12 00:45:00,54.5,51.0,29.98,SE,135,0.0,0.7,88,0.00,,,0.00,pywws,2013-05-12 04:45:00,
2013-05-12 00:51:00,54.3,50.8,29.98,NE,45,0.0,0.7,88,0.00,,,0.00,pywws,2013-05-12 04:51:00,
2013-05-12 00:57:00,54.1,50.7,29.98,NE,45,1.6,3.1,88,0.00,,,0.00,pywws,2013-05-12 04:57:00,
2013-05-12 01:02:00,54.1,50.7,29.98,NW,315,0.0,0.7,88,0.00,,,0.00,pywws,2013-05-12 05:02:00,
2013-05-12 01:08:00,54.0,50.2,29.98,North,0,0.7,1.6,87,0.00,,,0.00,pywws,2013-05-12 05:08:00,
2013-05-12 01:13:00,53.8,50.0,29.98,North,0,0.0,0.7,87,0.00,,,0.00,pywws,2013-05-12 05:13:00,
2013-05-12 01:19:00,53.8,49.7,29.99,North,0,0.0,1.6,86,0.00,,,0.00,pywws,2013-05-12 05:19:00,
2013-05-12 01:26:00,53.6,49.5,29.98,North,0,0.0,0.7,86,0.00,,,0.00,pywws,2013-05-12 05:26:00,
2013-05-12 01:32:00,53.6,49.5,29.98,NW,315,0.0,0.0,86,0.00,,,0.00,pywws,2013-05-12 05:32:00,
2013-05-12 01:38:00,53.4,49.6,29.98,NW,315,0.0,0.7,87,0.00,,,0.00,pywws,2013-05-12 05:38:00,
2013-05-12 01:44:00,53.2,49.8,29.98,North,0,0.7,1.6,88,0.00,,,0.00,pywws,2013-05-12 05:44:00,
2013-05-12 01:49:00,53.1,49.6,29.98,East,90,0.0,1.6,88,0.00,,,0.00,pywws,2013-05-12 05:49:00,
2013-05-12 01:55:00,53.1,49.3,29.98,NW,315,0.0,0.0,87,0.00,,,0.00,pywws,2013-05-12 05:55:00,
2013-05-12 02:01:00,52.9,49.1,29.98,SW,225,0.0,1.6,87,0.00,,,0.00,pywws,2013-05-12 06:01:00,
2013-05-12 02:06:00,52.9,49.1,29.99,SW,225,0.0,1.6,87,0.00,,,0.00,pywws,2013-05-12 06:06:00,
2013-05-12 02:12:00,52.7,49.2,29.98,SW,225,1.6,2.2,88,0.00,,,0.00,pywws,2013-05-12 06:12:00,
2013-05-12 02:17:00,52.7,49.2,29.98,NE,45,0.7,1.6,88,0.00,,,0.00,pywws,2013-05-12 06:17:00,
2013-05-12 02:23:00,52.5,49.1,29.98,NW,315,0.0,1.6,88,0.00,,,0.00,pywws,2013-05-12 06:23:00,
2013-05-12 02:29:00,52.3,48.6,29.98,North,0,0.0,0.7,87,0.00,,,0.00,pywws,2013-05-12 06:29:00,
2013-05-12 02:34:00,52.2,48.4,29.98,SW,225,0.7,1.6,87,0.00,,,0.00,pywws,2013-05-12 06:34:00,
2013-05-12 02:40:00,52.0,48.2,29.98,North,0,0.0,0.7,87,0.00,,,0.00,pywws,2013-05-12 06:40:00,
2013-05-12 02:45:00,51.8,47.7,29.97,NE,45,1.6,2.2,86,0.00,,,0.00,pywws,2013-05-12 06:45:00,
2013-05-12 02:51:00,51.8,47.4,29.98,North,0,0.0,0.7,85,0.00,,,0.00,pywws,2013-05-12 06:51:00,
2013-05-12 02:57:00,51.6,47.3,29.98,North,0,0.7,1.6,85,0.00,,,0.00,pywws,2013-05-12 06:57:00,
2013-05-12 03:02:00,51.4,47.1,29.98,West,270,0.0,0.7,85,0.00,,,0.00,pywws,2013-05-12 07:02:00,
2013-05-12 03:08:00,51.1,46.7,29.98,NE,45,0.0,0.7,85,0.00,,,0.00,pywws,2013-05-12 07:08:00,
2013-05-12 03:13:00,50.9,46.9,29.97,NE,45,0.0,1.6,86,0.00,,,0.00,pywws,2013-05-12 07:13:00,
2013-05-12 03:19:00,50.5,46.5,29.97,NW,315,0.0,0.0,86,0.00,,,0.00,pywws,2013-05-12 07:19:00,
2013-05-12 03:25:00,50.4,46.3,29.98,NE,45,0.7,2.2,86,0.00,,,0.00,pywws,2013-05-12 07:25:00,
2013-05-12 03:30:00,50.4,46.6,29.97,North,0,0.0,1.6,87,0.00,,,0.00,pywws,2013-05-12 07:30:00,
2013-05-12 03:36:00,50.4,46.6,29.97,North,0,2.2,4.5,87,0.00,,,0.00,pywws,2013-05-12 07:36:00,
2013-05-12 03:41:00,50.5,46.8,29.97,NE,45,0.0,1.6,87,0.00,,,0.00,pywws,2013-05-12 07:41:00,
2013-05-12 03:47:00,50.5,46.5,29.96,North,0,0.0,0.7,86,0.00,,,0.00,pywws,2013-05-12 07:47:00,
2013-05-12 03:53:00,50.4,46.3,29.97,NW,315,0.7,2.2,86,0.00,,,0.00,pywws,2013-05-12 07:53:00,
2013-05-12 03:58:00,50.4,46.3,29.96,NW,315,0.7,2.2,86,0.00,,,0.00,pywws,2013-05-12 07:58:00,
2013-05-12 04:04:00,50.4,46.3,29.96,NW,315,0.0,0.7,86,0.00,,,0.00,pywws,2013-05-12 08:04:00,
2013-05-12 04:09:00,50.4,46.6,29.96,NW,315,0.0,0.7,87,0.00,,,0.00,pywws,2013-05-12 08:09:00,
2013-05-12 04:15:00,50.4,46.6,29.96,NW,315,0.0,0.7,87,0.00,,,0.00,pywws,2013-05-12 08:15:00,
2013-05-12 04:21:00,50.4,46.9,29.97,SW,225,0.7,1.6,88,0.00,,,0.00,pywws,2013-05-12 08:21:00,
2013-05-12 04:26:00,50.4,47.2,29.97,NW,315,0.0,0.7,89,0.00,,,0.00,pywws,2013-05-12 08:26:00,
2013-05-12 04:32:00,50.4,47.5,29.97,NW,315,0.0,0.7,90,0.00,,,0.00,pywws,2013-05-12 08:32:00,
2013-05-12 04:37:00,50.5,47.7,29.97,NW,315,0.0,0.7,90,0.00,,,0.00,pywws,2013-05-12 08:37:00,
2013-05-12 04:43:00,50.4,47.8,29.97,North,0,0.0,0.0,91,0.00,,,0.00,pywws,2013-05-12 08:43:00,
2013-05-12 04:49:00,50.2,47.7,29.97,North,0,0.0,0.0,91,0.00,,,0.00,pywws,2013-05-12 08:49:00,
2013-05-12 04:54:00,50.2,47.7,29.98,West,270,0.0,1.6,91,0.00,,,0.00,pywws,2013-05-12 08:54:00,
2013-05-12 05:00:00,50.2,47.7,29.97,North,0,0.0,0.0,91,0.00,,,0.00,pywws,2013-05-12 09:00:00,
2013-05-12 05:05:00,50.2,47.9,29.98,North,0,0.0,0.0,92,0.00,,,0.00,pywws,2013-05-12 09:05:00,
2013-05-12 05:11:00,50.2,47.9,29.98,SW,225,0.0,0.7,92,0.00,,,0.00,pywws,2013-05-12 09:11:00,
2013-05-12 05:17:00,50.2,47.9,29.98,South,180,0.0,0.7,92,0.00,,,0.00,pywws,2013-05-12 09:17:00,
2013-05-12 05:23:00,50.2,48.2,29.97,East,90,0.0,0.0,93,0.00,,,0.00,pywws,2013-05-12 09:23:00,
2013-05-12 05:29:00,50.4,48.4,29.97,South,180,0.0,0.7,93,0.00,,,0.00,pywws,2013-05-12 09:29:00,
2013-05-12 05:35:00,50.5,48.6,29.97,SW,225,0.7,1.6,93,0.00,,,0.00,pywws,2013-05-12 09:35:00,
2013-05-12 05:41:00,50.4,48.4,29.97,West,270,0.0,0.0,93,0.00,,,0.00,pywws,2013-05-12 09:41:00,
2013-05-12 05:46:00,50.4,48.1,29.97,North,0,0.0,0.7,92,0.00,,,0.00,pywws,2013-05-12 09:46:00,
2013-05-12 05:52:00,50.4,48.4,29.97,North,0,0.0,0.0,93,0.00,,,0.00,pywws,2013-05-12 09:52:00,
2013-05-12 05:57:00,50.5,48.6,29.97,North,0,0.0,0.0,93,0.00,,,0.00,pywws,2013-05-12 09:57:00,
2013-05-12 06:03:00,50.5,48.6,29.97,North,0,0.0,0.7,93,0.00,,,0.00,pywws,2013-05-12 10:03:00,
2013-05-12 06:09:00,50.7,48.8,29.98,NW,315,0.0,0.7,93,0.00,,,0.00,pywws,2013-05-12 10:09:00,
2013-05-12 06:14:00,50.9,48.7,29.97,NE,45,0.0,0.7,92,0.00,,,0.00,pywws,2013-05-12 10:14:00,
2013-05-12 06:20:00,51.1,48.8,29.98,NW,315,0.0,1.6,92,0.00,,,0.00,pywws,2013-05-12 10:20:00,
2013-05-12 06:25:00,51.3,48.7,29.98,North,0,0.0,0.7,91,0.00,,,0.00,pywws,2013-05-12 10:25:00,
2013-05-12 06:31:00,51.6,49.1,29.98,NE,45,0.0,0.7,91,0.00,,,0.00,pywws,2013-05-12 10:31:00,
2013-05-12 06:37:00,51.6,49.1,29.98,North,0,0.0,0.7,91,0.00,,,0.00,pywws,2013-05-12 10:37:00,
2013-05-12 06:42:00,51.8,48.7,29.98,SW,225,0.0,1.6,89,0.00,,,0.00,pywws,2013-05-12 10:42:00,
2013-05-12 06:48:00,51.8,48.7,29.99,West,270,0.0,0.7,89,0.00,,,0.00,pywws,2013-05-12 10:48:00,
2013-05-12 06:53:00,51.8,48.7,29.98,West,270,0.0,0.7,89,0.00,,,0.00,pywws,2013-05-12 10:53:00,
2013-05-12 06:59:00,52.0,48.8,29.99,NW,315,0.0,0.0,89,0.00,,,0.00,pywws,2013-05-12 10:59:00,
2013-05-12 07:05:00,52.2,49.0,29.99,NW,315,0.0,0.7,89,0.00,,,0.00,pywws,2013-05-12 11:05:00,
2013-05-12 07:10:00,52.3,48.9,29.99,NW,315,0.0,0.7,88,0.00,,,0.00,pywws,2013-05-12 11:10:00,
2013-05-12 07:16:00,52.7,49.2,29.99,North,0,0.7,1.6,88,0.00,,,0.00,pywws,2013-05-12 11:16:00,
2013-05-12 07:21:00,52.7,48.9,29.99,WSW,248,0.7,0.7,87,0.00,,,0.00,pywws,2013-05-12 11:21:00,
2013-05-12 07:27:00,53.1,49.0,29.99,North,0,0.7,2.2,86,0.00,,,0.00,pywws,2013-05-12 11:27:00,
2013-05-12 07:33:00,53.1,48.7,29.99,North,0,0.7,2.2,85,0.00,,,0.00,pywws,2013-05-12 11:33:00,
2013-05-12 07:38:00,53.1,48.4,30.00,NW,315,1.6,2.2,84,0.00,,,0.00,pywws,2013-05-12 11:38:00,
2013-05-12 07:44:00,52.9,47.5,30.00,NE,45,1.6,2.2,82,0.00,,,0.00,pywws,2013-05-12 11:44:00,
2013-05-12 07:49:00,53.2,46.9,30.00,NE,45,3.1,3.8,79,0.00,,,0.00,pywws,2013-05-12 11:49:00,
2013-05-12 07:55:00,53.8,46.7,30.00,NE,45,0.7,2.2,77,0.00,,,0.00,pywws,2013-05-12 11:55:00,
2013-05-12 08:02:00,54.0,45.5,30.01,NW,315,0.7,1.6,73,0.00,,,0.00,pywws,2013-05-12 12:02:00,
2013-05-12 08:08:00,54.9,45.6,30.01,NE,45,1.6,3.8,71,0.00,,,0.00,pywws,2013-05-12 12:08:00,
2013-05-12 08:13:00,55.6,45.2,30.01,North,0,1.6,3.8,68,0.00,,,0.00,pywws,2013-05-12 12:13:00,
2013-05-12 08:19:00,56.3,45.1,30.01,North,0,1.6,3.1,66,0.00,,,0.00,pywws,2013-05-12 12:19:00,
2013-05-12 08:25:00,57.0,45.8,30.01,NW,315,2.2,4.5,66,0.00,,,0.00,pywws,2013-05-12 12:25:00,
2013-05-12 08:30:00,57.2,44.7,30.01,NE,45,1.6,3.8,63,0.00,,,0.00,pywws,2013-05-12 12:30:00,
2013-05-12 08:36:00,57.7,45.2,30.01,NE,45,2.2,3.8,63,0.00,,,0.00,pywws,2013-05-12 12:36:00,
2013-05-12 08:41:00,57.6,43.8,30.01,NE,45,1.6,3.8,60,0.00,,,0.00,pywws,2013-05-12 12:41:00,
2013-05-12 08:47:00,57.2,43.9,30.01,North,0,3.1,7.6,61,0.00,,,0.00,pywws,2013-05-12 12:47:00,
2013-05-12 08:53:00,57.6,44.6,30.01,North,0,1.6,3.1,62,0.00,,,0.00,pywws,2013-05-12 12:53:00,
2013-05-12 08:58:00,57.6,43.8,30.02,NW,315,2.2,3.1,60,0.00,,,0.00,pywws,2013-05-12 12:58:00,
2013-05-12 09:04:00,58.1,44.3,30.02,SW,225,2.2,4.5,60,0.00,,,0.00,pywws,2013-05-12 13:04:00,
2013-05-12 09:09:00,59.0,45.1,30.02,NW,315,3.1,3.8,60,0.00,,,0.00,pywws,2013-05-12 13:09:00,
2013-05-12 09:15:00,59.9,44.6,30.02,WSW,248,1.6,3.8,57,0.00,,,0.00,pywws,2013-05-12 13:15:00,
2013-05-12 09:21:00,60.4,44.7,30.02,NE,45,0.7,2.2,56,0.00,,,0.00,pywws,2013-05-12 13:21:00,
2013-05-12 09:26:00,61.0,44.2,30.02,WNW,292,1.6,3.1,54,0.00,,,0.00,pywws,2013-05-12 13:26:00,
2013-05-12 09:32:00,61.5,44.7,30.02,West,270,1.6,3.1,54,0.00,,,0.00,pywws,2013-05-12 13:32:00,
2013-05-12 09:37:00,62.4,45.1,30.02,West,270,1.6,3.1,53,0.00,,,0.00,pywws,2013-05-12 13:37:00,
2013-05-12 09:43:00,63.0,45.1,30.02,NE,45,0.7,2.2,52,0.00,,,0.00,pywws,2013-05-12 13:43:00,
2013-05-12 09:49:00,63.7,45.2,30.02,North,0,1.6,3.1,51,0.00,,,0.00,pywws,2013-05-12 13:49:00,
2013-05-12 09:54:00,63.0,44.5,30.02,West,270,1.6,5.4,51,0.00,,,0.00,pywws,2013-05-12 13:54:00,
2013-05-12 10:01:00,63.3,44.9,30.03,North,0,1.6,3.1,51,0.00,,,0.00,pywws,2013-05-12 14:01:00,
2013-05-12 10:07:00,63.1,44.7,30.02,NE,45,1.6,2.2,51,0.00,,,0.00,pywws,2013-05-12 14:07:00,
2013-05-12 10:13:00,62.8,44.4,30.02,NW,315,1.6,2.2,51,0.00,,,0.00,pywws,2013-05-12 14:13:00,
2013-05-12 10:18:00,62.4,45.1,30.02,NE,45,3.1,4.5,53,0.00,,,0.00,pywws,2013-05-12 14:18:00,
2013-05-12 10:24:00,63.0,45.1,30.02,NW,315,1.6,3.1,52,0.00,,,0.00,pywws,2013-05-12 14:24:00,
2013-05-12 10:29:00,63.3,45.4,30.03,SSW,202,1.6,4.5,52,0.00,,,0.00,pywws,2013-05-12 14:29:00,
2013-05-12 10:35:00,63.7,45.2,30.02,NE,45,1.6,3.1,51,0.00,,,0.00,pywws,2013-05-12 14:35:00,
2013-05-12 10:41:00,63.7,45.7,30.02,South,180,2.2,3.8,52,0.00,,,0.00,pywws,2013-05-12 14:41:00,
2013-05-12 10:46:00,64.4,44.3,30.02,NW,315,2.2,4.5,48,0.00,,,0.00,pywws,2013-05-12 14:46:00,
2013-05-12 10:52:00,64.6,43.9,30.03,NE,45,1.6,3.1,47,0.00,,,0.00,pywws,2013-05-12 14:52:00,
2013-05-12 10:57:00,65.5,42.4,30.02,NNW,338,1.6,3.8,43,0.00,,,0.00,pywws,2013-05-12 14:57:00,
2013-05-12 11:03:00,65.1,40.2,30.03,SW,225,1.6,4.5,40,0.00,,,0.00,pywws,2013-05-12 15:03:00,
2013-05-12 11:09:00,64.8,40.5,30.03,NW,315,0.7,2.2,41,0.00,,,0.00,pywws,2013-05-12 15:09:00,
2013-05-12 11:14:00,65.1,42.7,30.03,NW,315,2.2,3.1,44,0.00,,,0.00,pywws,2013-05-12 15:14:00,
2013-05-12 11:20:00,65.5,41.8,30.03,North,0,1.6,2.2,42,0.00,,,0.00,pywws,2013-05-12 15:20:00,
2013-05-12 11:25:00,65.8,44.5,30.03,NE,45,1.6,3.1,46,0.00,,,0.00,pywws,2013-05-12 15:25:00,
2013-05-12 11:31:00,65.5,43.0,30.03,NE,45,3.8,4.5,44,0.00,,,0.00,pywws,2013-05-12 15:31:00,
2013-05-12 11:37:00,65.7,43.1,30.03,NW,315,1.6,2.2,44,0.00,,,0.00,pywws,2013-05-12 15:37:00,
2013-05-12 11:42:00,66.7,41.6,30.03,SE,135,2.2,3.1,40,0.00,,,0.00,pywws,2013-05-12 15:42:00,
2013-05-12 11:48:00,66.4,42.0,30.03,SE,135,2.2,4.5,41,0.00,,,0.00,pywws,2013-05-12 15:48:00,
2013-05-12 11:53:00,66.6,40.2,30.03,ENE,68,0.7,3.1,38,0.00,,,0.00,pywws,2013-05-12 15:53:00,
2013-05-12 11:59:00,66.7,41.0,30.04,South,180,1.6,2.2,39,0.00,,,0.00,pywws,2013-05-12 15:59:00,
2013-05-12 12:05:00,67.6,41.1,30.03,North,0,2.2,3.8,38,0.00,,,0.00,pywws,2013-05-12 16:05:00,
2013-05-12 12:10:00,66.2,39.2,30.03,North,0,3.1,4.5,37,0.00,,,0.00,pywws,2013-05-12 16:10:00,
2013-05-12 12:16:00,65.1,40.2,30.03,NE,45,6.0,6.9,40,0.00,,,0.00,pywws,2013-05-12 16:16:00,
2013-05-12 12:21:00,65.1,40.2,30.04,NE,45,6.0,6.9,40,0.00,,,0.00,pywws,2013-05-12 16:21:00,
2013-05-12 12:27:00,65.8,40.8,30.04,North,0,1.6,2.2,40,0.00,,,0.00,pywws,2013-05-12 16:27:00,
2013-05-12 12:33:00,66.0,41.0,30.04,NNE,22,3.8,4.5,40,0.00,,,0.00,pywws,2013-05-12 16:33:00,
2013-05-12 12:38:00,65.5,40.5,30.04,NW,315,1.6,3.8,40,0.00,,,0.00,pywws,2013-05-12 16:38:00,
2013-05-12 12:44:00,65.8,40.2,30.04,SW,225,0.7,2.2,39,0.00,,,0.00,pywws,2013-05-12 16:44:00,
2013-05-12 12:49:00,66.9,40.5,30.03,North,0,0.7,2.2,38,0.00,,,0.00,pywws,2013-05-12 16:49:00,
2013-05-12 12:55:00,68.0,38.6,30.04,NE,45,1.6,3.1,34,0.00,,,0.00,pywws,2013-05-12 16:55:00,
2013-05-12 13:01:00,67.3,40.1,30.04,NW,315,1.6,3.1,37,0.00,,,0.00,pywws,2013-05-12 17:01:00,
2013-05-12 13:06:00,67.5,38.8,30.03,NE,45,2.2,3.8,35,0.00,,,0.00,pywws,2013-05-12 17:06:00,
2013-05-12 13:12:00,66.7,38.9,30.04,NE,45,1.6,2.2,36,0.00,,,0.00,pywws,2013-05-12 17:12:00,
2013-05-12 13:17:00,67.8,40.6,30.04,SW,225,2.2,3.8,37,0.00,,,0.00,pywws,2013-05-12 17:17:00,
2013-05-12 13:24:00,67.5,41.6,30.03,NE,45,1.6,3.1,39,0.00,,,0.00,pywws,2013-05-12 17:24:00,
2013-05-12 13:29:00,68.4,40.4,30.04,NE,45,3.1,3.8,36,0.00,,,0.00,pywws,2013-05-12 17:29:00,
2013-05-12 13:35:00,67.1,38.5,30.03,North,0,2.2,3.1,35,0.00,,,0.00,pywws,2013-05-12 17:35:00,
2013-05-12 13:41:00,67.1,41.3,30.03,North,0,2.2,3.1,39,0.00,,,0.00,pywws,2013-05-12 17:41:00,
2013-05-12 13:46:00,66.9,39.1,30.03,North,0,1.6,3.1,36,0.00,,,0.00,pywws,2013-05-12 17:46:00,
2013-05-12 13:52:00,67.1,39.2,30.04,NW,315,1.6,2.2,36,0.00,,,0.00,pywws,2013-05-12 17:52:00,
2013-05-12 13:57:00,67.3,37.9,30.04,NW,315,0.7,2.2,34,0.00,,,0.00,pywws,2013-05-12 17:57:00,
2013-05-12 14:04:00,67.1,37.8,30.03,SW,225,1.6,2.2,34,0.00,,,0.00,pywws,2013-05-12 18:04:00,
2013-05-12 14:09:00,67.1,40.0,30.04,North,0,1.6,2.2,37,0.00,,,0.00,pywws,2013-05-12 18:09:00,
2013-05-12 14:15:00,67.1,38.5,30.03,NE,45,3.1,5.4,35,0.00,,,0.00,pywws,2013-05-12 18:15:00,
2013-05-12 14:21:00,65.8,38.8,30.03,North,0,1.6,2.2,37,0.00,,,0.00,pywws,2013-05-12 18:21:00,
2013-05-12 14:26:00,65.7,39.4,30.03,NNW,338,0.7,2.2,38,0.00,,,0.00,pywws,2013-05-12 18:26:00,
2013-05-12 14:32:00,66.4,37.2,30.03,SW,225,0.7,1.6,34,0.00,,,0.00,pywws,2013-05-12 18:32:00,
2013-05-12 14:37:00,67.3,37.9,30.03,NW,315,0.7,3.1,34,0.00,,,0.00,pywws,2013-05-12 18:37:00,
2013-05-12 14:43:00,67.5,38.8,30.03,North,0,4.5,7.6,35,0.00,,,0.00,pywws,2013-05-12 18:43:00,
2013-05-12 14:49:00,66.4,37.2,30.03,NE,45,1.6,3.8,34,0.00,,,0.00,pywws,2013-05-12 18:49:00,
2013-05-12 14:54:00,67.5,38.8,30.03,South,180,2.2,3.1,35,0.00,,,0.00,pywws,2013-05-12 18:54:00,
2013-05-12 15:00:00,68.2,38.0,30.03,North,0,3.1,5.4,33,0.00,,,0.00,pywws,2013-05-12 19:00:00,
2013-05-12 15:05:00,67.5,35.8,30.03,NW,315,0.7,2.2,31,0.00,,,0.00,pywws,2013-05-12 19:05:00,
2013-05-12 15:11:00,68.4,36.5,30.03,NE,45,1.6,2.2,31,0.00,,,0.00,pywws,2013-05-12 19:11:00,
2013-05-12 15:17:00,68.0,37.8,30.03,ENE,68,2.2,3.8,33,0.00,,,0.00,pywws,2013-05-12 19:17:00,
2013-05-12 15:22:00,67.3,38.7,30.03,NE,45,4.5,6.9,35,0.00,,,0.00,pywws,2013-05-12 19:22:00,
2013-05-12 15:28:00,66.7,38.2,30.03,NW,315,3.1,6.0,35,0.00,,,0.00,pywws,2013-05-12 19:28:00,
2013-05-12 15:33:00,66.6,36.6,30.03,NW,315,2.2,3.8,33,0.00,,,0.00,pywws,2013-05-12 19:33:00,
2013-05-12 15:39:00,67.3,37.9,30.03,North,0,3.8,6.9,34,0.00,,,0.00,pywws,2013-05-12 19:39:00,
2013-05-12 15:45:00,67.3,37.9,30.03,North,0,2.2,4.5,34,0.00,,,0.00,pywws,2013-05-12 19:45:00,
2013-05-12 15:50:00,68.0,37.8,30.03,North,0,3.1,5.4,33,0.00,,,0.00,pywws,2013-05-12 19:50:00,
2013-05-12 15:56:00,67.6,35.9,30.03,North,0,3.1,5.4,31,0.00,,,0.00,pywws,2013-05-12 19:56:00,
2013-05-12 16:01:00,68.2,38.0,30.03,NE,45,1.6,3.1,33,0.00,,,0.00,pywws,2013-05-12 20:01:00,
2013-05-12 16:07:00,69.4,36.6,30.03,NE,45,1.6,3.1,30,0.00,,,0.00,pywws,2013-05-12 20:07:00,
2013-05-12 16:13:00,68.7,34.3,30.03,North,0,3.1,4.5,28,0.00,,,0.00,pywws,2013-05-12 20:13:00,
2013-05-12 16:18:00,68.4,36.5,30.03,NW,315,3.1,4.5,31,0.00,,,0.00,pywws,2013-05-12 20:18:00,
2013-05-12 16:24:00,68.0,37.8,30.03,SW,225,1.6,3.8,33,0.00,,,0.00,pywws,2013-05-12 20:24:00,
2013-05-12 16:29:00,68.5,36.7,30.03,NE,45,3.1,3.8,31,0.00,,,0.00,pywws,2013-05-12 20:29:00,
2013-05-12 16:35:00,68.7,35.2,30.03,NE,45,0.7,2.2,29,0.00,,,0.00,pywws,2013-05-12 20:35:00,
2013-05-12 16:41:00,68.4,32.1,30.03,North,0,2.2,3.8,26,0.00,,,0.00,pywws,2013-05-12 20:41:00,
2013-05-12 16:46:00,68.2,34.7,30.03,NW,315,1.6,3.1,29,0.00,,,0.00,pywws,2013-05-12 20:46:00,
2013-05-12 16:52:00,68.2,32.9,30.03,North,0,2.2,3.8,27,0.00,,,0.00,pywws,2013-05-12 20:52:00,
2013-05-12 16:57:00,66.4,33.2,30.03,NE,45,1.6,3.1,29,0.00,,,0.00,pywws,2013-05-12 20:57:00,
2013-05-12 17:03:00,66.9,34.5,30.03,NE,45,3.1,4.5,30,0.00,,,0.00,pywws,2013-05-12 21:03:00,
2013-05-12 17:09:00,67.6,32.5,30.03,North,0,2.2,3.8,27,0.00,,,0.00,pywws,2013-05-12 21:09:00,
2013-05-12 17:14:00,67.3,33.9,30.03,North,0,2.2,3.1,29,0.00,,,0.00,pywws,2013-05-12 21:14:00,
2013-05-12 17:20:00,67.6,35.1,30.04,NW,315,1.6,2.2,30,0.00,,,0.00,pywws,2013-05-12 21:20:00,
2013-05-12 17:25:00,68.4,32.1,30.04,North,0,2.2,3.8,26,0.00,,,0.00,pywws,2013-05-12 21:25:00,
2013-05-12 17:31:00,67.3,33.1,30.04,NE,45,1.6,2.2,28,0.00,,,0.00,pywws,2013-05-12 21:31:00,
2013-05-12 17:37:00,68.0,32.8,30.04,NE,45,0.7,2.2,27,0.00,,,0.00,pywws,2013-05-12 21:37:00,
2013-05-12 17:42:00,67.1,32.0,30.05,North,0,3.1,4.5,27,0.00,,,0.00,pywws,2013-05-12 21:42:00,
2013-05-12 17:48:00,66.9,32.7,30.05,NE,45,1.6,3.1,28,0.00,,,0.00,pywws,2013-05-12 21:48:00,
2013-05-12 17:53:00,67.5,32.3,30.05,North,0,2.2,3.8,27,0.00,,,0.00,pywws,2013-05-12 21:53:00,
2013-05-12 17:59:00,67.5,33.2,30.05,NE,45,1.6,3.1,28,0.00,,,0.00,pywws,2013-05-12 21:59:00,
2013-05-12 18:05:00,67.5,33.2,30.05,NE,45,1.6,3.1,28,0.00,,,0.00,pywws,2013-05-12 22:05:00,
2013-05-12 18:10:00,67.6,32.5,30.05,NE,45,2.2,3.1,27,0.00,,,0.00,pywws,2013-05-12 22:10:00,
2013-05-12 18:17:00,67.5,32.3,30.05,NE,45,1.6,3.1,27,0.00,,,0.00,pywws,2013-05-12 22:17:00,
2013-05-12 18:22:00,66.9,31.8,30.05,North,0,2.2,3.1,27,0.00,,,0.00,pywws,2013-05-12 22:22:00,
2013-05-12 18:28:00,66.7,32.6,30.05,NE,45,0.7,1.6,28,0.00,,,0.00,pywws,2013-05-12 22:28:00,
2013-05-12 18:33:00,67.8,33.5,30.05,North,0,0.0,0.7,28,0.00,,,0.00,pywws,2013-05-12 22:33:00,
2013-05-12 18:39:00,68.2,31.0,30.06,North,0,2.2,3.8,25,0.00,,,0.00,pywws,2013-05-12 22:39:00,
2013-05-12 18:45:00,66.2,31.2,30.05,North,0,0.7,1.6,27,0.00,,,0.00,pywws,2013-05-12 22:45:00,
2013-05-12 18:50:00,66.6,33.3,30.06,NE,45,1.6,2.2,29,0.00,,,0.00,pywws,2013-05-12 22:50:00,
2013-05-12 18:56:00,65.8,31.8,30.06,NE,45,0.7,1.6,28,0.00,,,0.00,pywws,2013-05-12 22:56:00,
2013-05-12 19:01:00,63.1,31.2,30.06,East,90,0.7,2.2,30,0.00,,,0.00,pywws,2013-05-12 23:01:00,
2013-05-12 19:07:00,60.1,31.6,30.06,NE,45,1.6,2.2,34,0.00,,,0.00,pywws,2013-05-12 23:07:00,
2013-05-12 19:13:00,58.6,31.8,30.06,North,0,0.7,1.6,36,0.00,,,0.00,pywws,2013-05-12 23:13:00,
2013-05-12 19:18:00,57.6,32.1,30.06,NE,45,0.7,1.6,38,0.00,,,0.00,pywws,2013-05-12 23:18:00,
2013-05-12 19:25:00,56.8,32.8,30.06,NE,45,2.2,3.1,40,0.00,,,0.00,pywws,2013-05-12 23:25:00,
2013-05-12 19:30:00,56.1,32.7,30.06,SW,225,0.7,1.6,41,0.00,,,0.00,pywws,2013-05-12 23:30:00,
2013-05-12 19:36:00,55.8,32.4,30.06,North,0,0.7,1.6,41,0.00,,,0.00,pywws,2013-05-12 23:36:00,
2013-05-12 19:41:00,55.6,31.6,30.06,NE,45,0.7,2.2,40,0.00,,,0.00,pywws,2013-05-12 23:41:00,
2013-05-12 19:47:00,55.2,31.9,30.06,NNE,22,0.7,1.6,41,0.00,,,0.00,pywws,2013-05-12 23:47:00,
2013-05-12 19:53:00,54.9,32.8,30.06,NE,45,0.7,1.6,43,0.00,,,0.00,pywws,2013-05-12 23:53:00,
2013-05-12 19:58:00,54.3,32.9,30.07,West,270,0.7,1.6,44,0.00,,,0.00,pywws,2013-05-12 23:58:00,
2013-05-12 20:04:00,53.8,32.4,30.07,NNE,22,1.6,3.1,44,0.00,,,0.00,pywws,2013-05-13 00:04:00,
2013-05-12 20:11:00,53.4,32.6,30.07,North,0,0.0,0.0,45,0.00,,,0.00,pywws,2013-05-13 00:11:00,
2013-05-12 20:17:00,53.1,32.3,30.06,North,0,0.0,0.7,45,0.00,,,0.00,pywws,2013-05-13 00:17:00,
2013-05-12 20:22:00,52.5,32.3,30.07,North,0,0.0,0.7,46,0.00,,,0.00,pywws,2013-05-13 00:22:00,
2013-05-12 20:28:00,51.8,32.2,30.08,NE,45,0.0,0.7,47,0.00,,,0.00,pywws,2013-05-13 00:28:00,
2013-05-12 20:33:00,51.3,32.2,30.07,NW,315,0.0,0.0,48,0.00,,,0.00,pywws,2013-05-13 00:33:00,
2013-05-12 20:39:00,50.7,31.8,30.08,NW,315,0.0,0.0,48,0.00,,,0.00,pywws,2013-05-13 00:39:00,
2013-05-12 20:45:00,50.4,32.9,30.08,South,180,0.7,1.6,51,0.00,,,0.00,pywws,2013-05-13 00:45:00,
2013-05-12 20:50:00,50.5,34.1,30.08,SW,225,0.7,1.6,53,0.00,,,0.00,pywws,2013-05-13 00:50:00,
2013-05-12 20:56:00,50.4,33.9,30.08,SW,225,0.0,0.7,53,0.00,,,0.00,pywws,2013-05-13 00:56:00,
2013-05-12 21:01:00,49.8,34.3,30.08,SW,225,0.7,1.6,55,0.00,,,0.00,pywws,2013-05-13 01:01:00,
2013-05-12 21:07:00,49.6,34.6,30.08,SW,225,0.7,1.6,56,0.00,,,0.00,pywws,2013-05-13 01:07:00,
2013-05-12 21:13:00,49.6,34.6,30.08,SW,225,1.6,1.6,56,0.00,,,0.00,pywws,2013-05-13 01:13:00,
2013-05-12 21:19:00,48.9,34.4,30.08,SW,225,0.7,1.6,57,0.00,,,0.00,pywws,2013-05-13 01:19:00,
2013-05-12 21:25:00,48.7,34.6,30.08,South,180,0.7,1.6,58,0.00,,,0.00,pywws,2013-05-13 01:25:00,
2013-05-12 21:30:00,48.2,34.6,30.09,SW,225,0.7,1.6,59,0.00,,,0.00,pywws,2013-05-13 01:30:00,
2013-05-12 21:36:00,47.8,34.6,30.09,SW,225,0.7,1.6,60,0.00,,,0.00,pywws,2013-05-13 01:36:00,
2013-05-12 21:41:00,47.3,34.1,30.10,SW,225,0.0,0.7,60,0.00,,,0.00,pywws,2013-05-13 01:41:00,
2013-05-12 21:47:00,47.1,34.4,30.10,SW,225,0.0,0.7,61,0.00,,,0.00,pywws,2013-05-13 01:47:00,
2013-05-12 21:53:00,46.8,34.0,30.10,South,180,0.0,0.0,61,0.00,,,0.00,pywws,2013-05-13 01:53:00,
2013-05-12 21:58:00,46.2,33.9,30.11,SW,225,0.0,0.7,62,0.00,,,0.00,pywws,2013-05-13 01:58:00,
2013-05-12 22:04:00,46.0,34.2,30.11,SW,225,0.0,0.7,63,0.00,,,0.00,pywws,2013-05-13 02:04:00,
2013-05-12 22:10:00,45.5,33.6,30.11,SW,225,0.0,0.7,63,0.00,,,0.00,pywws,2013-05-13 02:10:00,
2013-05-12 22:18:00,45.3,33.5,30.11,SW,225,0.7,0.7,63,0.00,,,0.00,pywws,2013-05-13 02:18:00,
2013-05-12 22:24:00,44.8,33.4,30.11,SW,225,0.0,0.7,64,0.00,,,0.00,pywws,2013-05-13 02:24:00,
2013-05-12 22:29:00,44.2,33.2,30.11,SW,225,0.7,1.6,65,0.00,,,0.00,pywws,2013-05-13 02:29:00,
2013-05-12 22:35:00,44.1,33.4,30.11,SW,225,0.0,0.7,66,0.00,,,0.00,pywws,2013-05-13 02:35:00,
2013-05-12 22:41:00,43.9,33.3,30.11,SW,225,0.0,0.7,66,0.00,,,0.00,pywws,2013-05-13 02:41:00,
2013-05-12 22:47:00,43.7,33.1,30.11,SW,225,0.0,0.0,66,0.00,,,0.00,pywws,2013-05-13 02:47:00,
2013-05-12 22:53:00,43.2,33.3,30.11,SW,225,0.0,0.0,68,0.00,,,0.00,pywws,2013-05-13 02:53:00,
2013-05-12 22:58:00,42.8,33.3,30.11,West,270,0.0,1.6,69,0.00,,,0.00,pywws,2013-05-13 02:58:00,
2013-05-12 23:04:00,43.2,34.0,30.11,West,270,0.0,0.0,70,0.00,,,0.00,pywws,2013-05-13 03:04:00,
2013-05-12 23:09:00,43.5,33.7,30.11,SW,225,0.7,1.6,68,0.00,,,0.00,pywws,2013-05-13 03:09:00,
2013-05-12 23:15:00,43.7,33.8,30.11,SW,225,0.7,1.6,68,0.00,,,0.00,pywws,2013-05-13 03:15:00,
2013-05-12 23:21:00,43.9,34.0,30.11,West,270,0.7,1.6,68,0.00,,,0.00,pywws,2013-05-13 03:21:00,
2013-05-12 23:26:00,43.7,33.8,30.11,SW,225,0.7,1.6,68,0.00,,,0.00,pywws,2013-05-13 03:26:00,
2013-05-12 23:32:00,43.7,33.5,30.11,West,270,0.0,0.7,67,0.00,,,0.00,pywws,2013-05-13 03:32:00,
2013-05-12 23:37:00,43.7,33.5,30.11,SW,225,0.7,1.6,67,0.00,,,0.00,pywws,2013-05-13 03:37:00,
2013-05-12 23:43:00,43.7,33.1,30.11,SW,225,0.0,0.7,66,0.00,,,0.00,pywws,2013-05-13 03:43:00,
2013-05-12 23:49:00,43.5,32.9,30.11,North,0,0.0,0.7,66,0.00,,,0.00,pywws,2013-05-13 03:49:00,
2013-05-12 23:54:00,43.3,32.8,30.11,West,270,0.0,1.6,66,0.00,,,0.00,pywws,2013-05-13 03:54:00,